Atlantic - Newfoundland: Past 24 Hour Conditions

 

East Point

07:00 AM ADT 22 September 2014
This table is a summary of hourly weather conditions for the past 24 hours.
Date / Time
(ADT)
Wind(knots) Conditions Visibility(km) Pressure(kPa) Air tempC) Relative humidity(%) Dew pointC) Humidex
22 September 2014
7:00 S 25 gust 36 N/A N/A 99.5 19 96 19 *
6:00 SSE 20 gust 29 N/A N/A 99.6 19 97 18 *
5:00 S 20 gust 27 N/A N/A 99.9 19 97 18 *
4:00 SSE 19 gust 24 N/A N/A 100.1 18 97 18 *
3:00 SSE 16 gust 22 N/A N/A 100.4 18 97 18 *
2:00 SSE 14 gust 19 N/A N/A 100.6 18 97 18 *
1:00 SE 14 gust 19 N/A N/A 100.8 18 96 18 *
0:00 SSE 13 N/A N/A 101.0 18 96 18 *
21 September 2014
23:00 SSW 11 gust 16 N/A N/A 101.2 18 95 17 *
22:00 S 14 gust 20 N/A N/A 101.2 18 92 17 *
21:00 S 13 gust 18 N/A N/A 101.3 19 91 17 *
20:00 S 10 gust 15 N/A N/A 101.4 18 86 16 *
19:00 SSW 11 gust 17 N/A N/A 101.4 19 80 15 *
18:00 SSW 13 gust 20 N/A N/A 101.4 20 70 15 *
17:00 SSW 13 gust 18 N/A N/A 101.4 21 71 15 25
16:00 SSW 14 gust 20 N/A N/A 101.4 21 68 15 25
15:00 SSW 14 gust 19 N/A N/A 101.5 21 68 15 25
14:00 SSW 15 gust 24 N/A N/A 101.5 21 68 14 *
13:00 SSW 20 N/A N/A 101.6 20 70 14 *
12:00 SSW 17 N/A N/A 101.7 19 73 14 *
11:00 SSW 17 gust 24 N/A N/A 101.7 18 74 13 *
10:00 SW 18 gust 24 N/A N/A 101.7 17 74 12 *
9:00 SW 18 gust 28 N/A N/A 101.7 16 74 12 *
8:00 SW 15 gust 20 N/A N/A 101.7 15 76 11 *
7:00 SW 16 gust 26 N/A N/A 101.7 15 74 10 *
 
Map of Atlantic - Newfoundland marine weather areas Southwestern Grand Banks - 44138 Banquereau - 44139 Tail of the Bank - 44140 Nickerson Bank - 44251 Northeast Burgeo Bank - 44255 Blanc-Sablon Airport Cap Whittle Chevery Natashquan Airport Heath Point Miscou Island Grand Étang Ingonish Beach North Mountain St.Paul Island J.A. Douglas McCurdy Sydney Airport Charlottetown Airport East Point North Cape Argentia Bonavista Burgeo Cape Race Corner Brook Daniel's Harbour Englee Ferolle Point La Scie Port aux Basques Rocky Harbour Sagona Island St. Anthony Airport St. John's Int'l Airport St. Lawrence Stephenville Airport Twillingate Winterland Wreckhouse Cartwright Airport Mary's Harbour Grates Cove Pool's Island Marticot Island Long Pond Îles de la Madeleine Airport
Legend: buoyBuoy land stationLand Station